Time;durP1;ratioP1;P1;durP2;ratioP2;P2;SDS_P1;SDS_P2;PMS_P1;PMS_P2;Temp;Humidity;BMP_temperature;BMP_pressure;BME280_temperature;BME280_humidity;BME280_pressure;Samples;Min_cycle;Max_cycle;Signal;HPM_P1;HPM_P2
2021/05/20 00:02:06;;;;;;;0.20;0.20;;;9.50;99.90;;;;;;6148699;23;20001;-79
2021/05/20 00:04:31;;;;;;;0.20;0.20;;;9.50;99.90;;;;;;6148191;23;20052;-79
2021/05/20 00:06:57;;;;;;;0.10;0.10;;;9.50;99.90;;;;;;6148652;23;20048;-79
2021/05/20 00:09:23;;;;;;;0.10;0.10;;;9.50;99.90;;;;;;6150229;23;20025;-79
2021/05/20 00:11:49;;;;;;;0.20;0.20;;;9.50;99.90;;;;;;6150003;23;20002;-79
2021/05/20 00:14:14;;;;;;;0.10;0.10;;;9.60;99.90;;;;;;6148484;23;20100;-79
2021/05/20 00:16:40;;;;;;;0.10;0.10;;;9.60;99.90;;;;;;6150362;23;20451;-79
2021/05/20 00:19:07;;;;;;;0.20;0.20;;;9.60;99.90;;;;;;6149821;23;20005;-79
2021/05/20 00:21:33;;;;;;;0.20;0.20;;;9.70;99.90;;;;;;6150209;23;20009;-79
2021/05/20 00:23:59;;;;;;;0.10;0.10;;;9.70;99.90;;;;;;6149503;23;20010;-79
2021/05/20 00:26:24;;;;;;;0.10;0.10;;;9.80;99.90;;;;;;6149858;23;20346;-78
2021/05/20 00:28:50;;;;;;;0.10;0.10;;;9.80;99.90;;;;;;6149883;23;20475;-79
2021/05/20 00:31:16;;;;;;;0.10;0.10;;;9.90;99.90;;;;;;6149715;23;20015;-79
2021/05/20 00:33:42;;;;;;;0.13;0.13;;;10.00;99.90;;;;;;6149784;23;20004;-79
2021/05/20 00:36:07;;;;;;;0.10;0.10;;;10.10;99.90;;;;;;6148140;23;20014;-79
2021/05/20 00:38:34;;;;;;;0.10;0.10;;;10.10;99.90;;;;;;6149625;23;20498;-79
2021/05/20 00:41:03;;;;;;;0.10;0.10;;;10.10;99.90;;;;;;6149992;23;20002;-79
2021/05/20 00:43:29;;;;;;;0.10;0.10;;;10.20;99.90;;;;;;6149136;23;20005;-78
2021/05/20 00:45:55;;;;;;;0.15;0.15;;;10.30;99.90;;;;;;6149880;23;20012;-79
2021/05/20 00:48:21;;;;;;;0.10;0.10;;;10.40;99.90;;;;;;6149216;23;20040;-79
2021/05/20 00:50:47;;;;;;;0.10;0.10;;;10.40;99.90;;;;;;6149702;23;20005;-79
2021/05/20 00:53:14;;;;;;;0.13;0.13;;;10.40;99.90;;;;;;6149524;23;20064;-79
2021/05/20 00:55:41;;;;;;;0.10;0.10;;;10.40;99.90;;;;;;6149813;23;20503;-79
2021/05/20 00:58:07;;;;;;;0.10;0.10;;;10.40;99.90;;;;;;6149565;23;20124;-79
2021/05/20 01:00:33;;;;;;;0.10;0.10;;;10.40;99.90;;;;;;6149999;23;20426;-79
2021/05/20 01:03:00;;;;;;;0.20;0.20;;;10.40;99.90;;;;;;6149381;23;20001;-79
2021/05/20 01:05:26;;;;;;;0.10;0.10;;;10.30;99.90;;;;;;6149260;23;20005;-78
2021/05/20 01:07:52;;;;;;;0.10;0.10;;;10.30;99.90;;;;;;6149543;23;20340;-78
2021/05/20 01:10:18;;;;;;;6.78;6.30;;;10.30;99.90;;;;;;6149683;23;20017;-79
2021/05/20 01:12:44;;;;;;;0.20;0.20;;;10.30;99.90;;;;;;6149562;23;20088;-78
2021/05/20 01:15:24;;;;;;;0.15;0.15;;;10.30;99.90;;;;;;6149429;23;20012;-79
2021/05/20 01:17:52;;;;;;;0.10;0.10;;;10.20;99.90;;;;;;6149040;23;20032;-79
2021/05/20 01:20:19;;;;;;;0.10;0.10;;;10.20;99.90;;;;;;6147867;23;20012;-79
2021/05/20 01:22:45;;;;;;;0.10;0.10;;;10.10;99.90;;;;;;6149167;23;20400;-79
2021/05/20 01:25:12;;;;;;;0.10;0.10;;;10.10;99.90;;;;;;6149692;23;20002;-79
2021/05/20 01:27:41;;;;;;;0.20;0.20;;;10.00;99.90;;;;;;6149077;23;20080;-79
2021/05/20 01:30:08;;;;;;;0.10;0.10;;;10.00;99.90;;;;;;6148601;23;20261;-79
2021/05/20 01:32:33;;;;;;;0.10;0.10;;;10.00;99.90;;;;;;6149580;23;20450;-79
2021/05/20 01:34:59;;;;;;;0.10;0.10;;;9.90;99.90;;;;;;6149307;23;20437;-78
2021/05/20 01:37:25;;;;;;;0.10;0.10;;;9.90;99.90;;;;;;6149013;23;20005;-80
2021/05/20 01:39:50;;;;;;;0.10;0.10;;;9.90;99.90;;;;;;6149457;23;20433;-79
2021/05/20 01:42:16;;;;;;;0.10;0.10;;;9.90;99.90;;;;;;6148479;23;20006;-78
2021/05/20 01:44:41;;;;;;;0.10;0.10;;;9.80;99.90;;;;;;6147090;23;20010;-79
2021/05/20 01:47:07;;;;;;;0.10;0.10;;;9.80;99.90;;;;;;6149371;23;20014;-79
2021/05/20 01:49:33;;;;;;;0.20;0.20;;;9.80;99.90;;;;;;6148745;23;20081;-79
2021/05/20 01:51:58;;;;;;;0.10;0.10;;;9.80;99.90;;;;;;6149322;23;20010;-79
2021/05/20 01:54:24;;;;;;;0.10;0.10;;;9.80;99.90;;;;;;6148727;23;20010;-78
2021/05/20 01:56:50;;;;;;;0.10;0.10;;;9.80;99.90;;;;;;6147231;23;20440;-79
2021/05/20 01:59:15;;;;;;;0.10;0.10;;;9.80;99.90;;;;;;6147418;23;20451;-79
2021/05/20 02:01:41;;;;;;;0.17;0.17;;;9.80;99.90;;;;;;6149152;23;20327;-79
2021/05/20 02:04:07;;;;;;;0.10;0.10;;;9.70;99.90;;;;;;6149057;23;20068;-79
2021/05/20 02:06:33;;;;;;;0.10;0.10;;;9.70;99.90;;;;;;6149209;23;20082;-79
2021/05/20 02:08:59;;;;;;;0.10;0.10;;;9.70;99.90;;;;;;6148044;23;20002;-79
2021/05/20 02:11:24;;;;;;;0.20;0.20;;;9.70;99.90;;;;;;6149187;23;20005;-79
2021/05/20 02:13:50;;;;;;;0.10;0.10;;;9.60;99.90;;;;;;6147181;23;20080;-79
2021/05/20 02:16:16;;;;;;;0.10;0.10;;;9.70;99.90;;;;;;6149021;23;20059;-79
2021/05/20 02:18:42;;;;;;;0.10;0.10;;;9.60;99.90;;;;;;6147090;23;20009;-79
2021/05/20 02:21:08;;;;;;;0.10;0.10;;;9.50;99.90;;;;;;6148773;23;20005;-80
2021/05/20 02:23:34;;;;;;;0.10;0.10;;;9.50;99.90;;;;;;6146719;23;20060;-79
2021/05/20 02:25:59;;;;;;;0.15;0.15;;;9.40;99.90;;;;;;6148990;23;20076;-79
2021/05/20 02:28:25;;;;;;;0.10;0.10;;;9.40;99.90;;;;;;6148469;23;20005;-79
2021/05/20 02:30:51;;;;;;;0.10;0.10;;;9.40;99.90;;;;;;6147283;23;20329;-79
2021/05/20 02:33:17;;;;;;;0.10;0.10;;;9.30;99.90;;;;;;6147157;23;20089;-79
2021/05/20 02:35:42;;;;;;;0.10;0.10;;;9.30;99.90;;;;;;6148500;23;20009;-79
2021/05/20 02:38:08;;;;;;;0.10;0.10;;;9.20;99.90;;;;;;6147074;23;20077;-79
2021/05/20 02:40:35;;;;;;;0.10;0.10;;;9.20;99.90;;;;;;6147602;23;20008;-78
2021/05/20 02:43:01;;;;;;;0.20;0.20;;;9.20;99.90;;;;;;6148609;23;20345;-79
2021/05/20 02:45:27;;;;;;;0.10;0.10;;;9.10;99.90;;;;;;6149090;23;20004;-79
2021/05/20 02:47:54;;;;;;;0.10;0.10;;;9.10;99.90;;;;;;6148425;23;20090;-79
2021/05/20 02:50:21;;;;;;;0.10;0.10;;;9.10;99.90;;;;;;6148708;23;20009;-79
2021/05/20 02:52:47;;;;;;;0.10;0.10;;;9.00;99.90;;;;;;6148649;23;20326;-79
2021/05/20 02:55:17;;;;;;;0.10;0.10;;;9.00;99.90;;;;;;6150406;23;20010;-78
2021/05/20 02:57:47;;;;;;;0.20;0.20;;;9.10;99.90;;;;;;6149420;23;20017;-79
2021/05/20 03:00:13;;;;;;;0.15;0.15;;;9.10;99.90;;;;;;6149051;23;20009;-80
2021/05/20 03:02:39;;;;;;;0.20;0.20;;;9.10;99.90;;;;;;6150098;23;20382;-79
2021/05/20 03:05:08;;;;;;;0.10;0.10;;;9.10;99.90;;;;;;6150794;23;19997;-79
2021/05/20 03:07:35;;;;;;;0.10;0.10;;;9.00;99.90;;;;;;6150594;23;20016;-79
2021/05/20 03:10:03;;;;;;;0.13;0.13;;;9.00;99.90;;;;;;6150770;23;20018;-79
2021/05/20 03:12:29;;;;;;;0.10;0.10;;;9.00;99.90;;;;;;6150500;23;20005;-79
2021/05/20 03:14:55;;;;;;;0.10;0.10;;;8.90;99.90;;;;;;6150025;23;20085;-79
2021/05/20 03:17:21;;;;;;;0.10;0.10;;;8.90;99.90;;;;;;6150466;23;20139;-79
2021/05/20 03:19:47;;;;;;;0.10;0.10;;;8.90;99.90;;;;;;6150944;23;20072;-79
2021/05/20 03:22:13;;;;;;;0.10;0.10;;;8.90;99.90;;;;;;6150682;23;20021;-79
2021/05/20 03:24:38;;;;;;;0.10;0.10;;;8.90;99.90;;;;;;6150163;23;20009;-78
2021/05/20 03:27:04;;;;;;;0.10;0.10;;;9.00;99.90;;;;;;6150295;23;20001;-80
2021/05/20 03:29:30;;;;;;;0.10;0.10;;;9.00;99.90;;;;;;6150207;23;20006;-78
2021/05/20 03:31:56;;;;;;;0.15;0.15;;;9.00;99.90;;;;;;6150869;23;20256;-79
2021/05/20 03:34:21;;;;;;;0.10;0.10;;;9.00;99.90;;;;;;6148589;23;20456;-78
2021/05/20 03:36:47;;;;;;;0.10;0.10;;;9.00;99.90;;;;;;6148995;23;20009;-79
2021/05/20 03:39:13;;;;;;;0.20;0.20;;;9.00;99.90;;;;;;6148617;23;20024;-80
2021/05/20 03:41:38;;;;;;;0.10;0.10;;;9.00;99.90;;;;;;6150051;23;20421;-79
2021/05/20 03:44:05;;;;;;;0.10;0.10;;;8.90;99.90;;;;;;6150046;23;20010;-79
2021/05/20 03:46:30;;;;;;;0.10;0.10;;;8.90;99.90;;;;;;6150543;23;20032;-78
2021/05/20 03:48:56;;;;;;;0.20;0.20;;;8.90;99.90;;;;;;6149848;23;20353;-76
2021/05/20 03:51:22;;;;;;;0.10;0.10;;;8.90;99.90;;;;;;6150609;23;20028;-77
2021/05/20 03:53:48;;;;;;;0.10;0.10;;;9.00;99.90;;;;;;6149630;23;20001;-77
2021/05/20 03:56:14;;;;;;;0.20;0.20;;;9.00;99.90;;;;;;6150423;23;20001;-78
2021/05/20 03:58:39;;;;;;;0.17;0.17;;;9.00;99.90;;;;;;6150370;23;20459;-78
2021/05/20 04:01:05;;;;;;;0.10;0.10;;;9.00;99.90;;;;;;6150041;23;20005;-77
2021/05/20 04:03:32;;;;;;;0.10;0.10;;;9.00;99.90;;;;;;6148447;23;20009;-78
2021/05/20 04:06:00;;;;;;;0.10;0.10;;;9.00;99.90;;;;;;6149341;23;20009;-78
2021/05/20 04:08:26;;;;;;;0.10;0.10;;;9.10;99.90;;;;;;6149972;23;20006;-78
2021/05/20 04:10:52;;;;;;;0.10;0.10;;;9.10;99.90;;;;;;6148555;23;20108;-78
2021/05/20 04:13:48;;;;;;;0.10;0.10;;;9.10;99.90;;;;;;6150022;23;20389;-78
2021/05/20 04:16:13;;;;;;;0.20;0.20;;;9.20;99.90;;;;;;6136770;23;20075;-77
2021/05/20 04:18:40;;;;;;;0.10;0.10;;;9.20;99.90;;;;;;6149628;23;20021;-76
2021/05/20 04:21:06;;;;;;;0.10;0.10;;;9.30;99.90;;;;;;6149800;23;19997;-78
2021/05/20 04:23:32;;;;;;;0.10;0.10;;;9.30;99.90;;;;;;6147841;23;20024;-78
2021/05/20 04:25:57;;;;;;;0.10;0.10;;;9.30;99.90;;;;;;6150103;23;20002;-77
2021/05/20 04:28:24;;;;;;;0.10;0.10;;;9.40;99.90;;;;;;6148053;23;20013;-77
2021/05/20 04:30:49;;;;;;;0.10;0.10;;;9.40;99.90;;;;;;6150428;23;20009;-78
2021/05/20 04:33:16;;;;;;;0.10;0.10;;;9.50;99.90;;;;;;6147749;23;20005;-78
2021/05/20 04:35:42;;;;;;;0.17;0.17;;;9.50;99.90;;;;;;6149721;23;20112;-76
2021/05/20 04:38:09;;;;;;;0.20;0.20;;;9.60;99.90;;;;;;6150087;23;20395;-78
2021/05/20 04:40:38;;;;;;;0.10;0.10;;;9.70;99.90;;;;;;6148211;23;20009;-77
2021/05/20 04:43:04;;;;;;;0.30;0.30;;;9.70;99.90;;;;;;6149869;23;20001;-77
2021/05/20 04:45:30;;;;;;;0.10;0.10;;;9.80;99.90;;;;;;6149226;23;20010;-77
2021/05/20 04:47:56;;;;;;;0.10;0.10;;;10.00;99.90;;;;;;6149874;23;20020;-76
2021/05/20 04:50:21;;;;;;;0.10;0.10;;;10.10;99.90;;;;;;6149570;23;20009;-77
2021/05/20 04:52:47;;;;;;;0.20;0.20;;;10.20;99.90;;;;;;6149676;23;20340;-78
2021/05/20 04:55:15;;;;;;;0.20;0.20;;;10.40;99.90;;;;;;6149816;23;20065;-78
2021/05/20 04:57:41;;;;;;;0.20;0.20;;;10.50;99.90;;;;;;6149434;23;20002;-78
2021/05/20 05:00:10;;;;;;;0.10;0.10;;;10.70;99.90;;;;;;6149215;23;20064;-77
2021/05/20 05:02:36;;;;;;;0.15;0.15;;;10.80;99.90;;;;;;6149454;23;19997;-76
2021/05/20 05:05:02;;;;;;;0.10;0.10;;;11.00;99.90;;;;;;6149580;23;20056;-76
2021/05/20 05:07:28;;;;;;;0.10;0.10;;;11.10;99.90;;;;;;6149356;23;20001;-76
2021/05/20 05:09:53;;;;;;;0.20;0.20;;;11.30;99.90;;;;;;6149749;23;20455;-76
2021/05/20 05:12:19;;;;;;;0.10;0.10;;;11.40;99.90;;;;;;6148672;23;20006;-76
2021/05/20 05:14:46;;;;;;;0.20;0.20;;;11.60;99.90;;;;;;6148204;23;20012;-76
2021/05/20 05:17:12;;;;;;;0.20;0.20;;;11.80;99.90;;;;;;6148309;23;20000;-76
2021/05/20 05:19:38;;;;;;;0.10;0.10;;;11.90;99.90;;;;;;6148090;23;20021;-76
2021/05/20 05:22:04;;;;;;;0.10;0.10;;;12.00;99.90;;;;;;6148247;23;20014;-77
2021/05/20 05:24:30;;;;;;;0.10;0.10;;;12.10;99.90;;;;;;6146065;23;20056;-80
2021/05/20 05:26:56;;;;;;;0.10;0.10;;;12.30;99.90;;;;;;6148481;23;20028;-79
2021/05/20 05:29:22;;;;;;;0.10;0.10;;;12.30;99.90;;;;;;6148238;23;20476;-81
2021/05/20 05:31:49;;;;;;;1.90;1.75;;;12.30;99.90;;;;;;6148765;23;20004;-78
2021/05/20 05:34:15;;;;;;;0.10;0.10;;;12.40;99.90;;;;;;6148301;23;20017;-79
2021/05/20 05:36:42;;;;;;;0.10;0.10;;;12.40;99.90;;;;;;6148299;23;20026;-78
2021/05/20 05:39:08;;;;;;;0.10;0.10;;;12.50;99.90;;;;;;6148282;23;20330;-76
2021/05/20 05:41:35;;;;;;;0.10;0.10;;;12.50;99.90;;;;;;6147284;23;20056;-78
2021/05/20 05:44:01;;;;;;;0.10;0.10;;;12.60;99.90;;;;;;6146758;23;20107;-79
2021/05/20 05:46:27;;;;;;;0.10;0.10;;;12.60;99.90;;;;;;6147972;23;20273;-79
2021/05/20 05:48:53;;;;;;;0.10;0.10;;;12.70;99.90;;;;;;6148910;23;20020;-80
2021/05/20 05:51:21;;;;;;;0.10;0.10;;;12.70;99.90;;;;;;6148940;23;20010;-80
2021/05/20 05:53:47;;;;;;;0.10;0.10;;;12.80;99.90;;;;;;6147283;23;20432;-79
2021/05/20 05:56:13;;;;;;;0.10;0.10;;;12.80;99.90;;;;;;6147556;23;20197;-80
2021/05/20 05:58:39;;;;;;;0.10;0.10;;;12.90;99.90;;;;;;6148236;23;20024;-83
2021/05/20 06:01:04;;;;;;;0.10;0.10;;;12.90;99.90;;;;;;6148361;23;20009;-84
2021/05/20 06:03:33;;;;;;;0.10;0.10;;;12.90;99.90;;;;;;6146732;23;20084;-81
2021/05/20 06:05:59;;;;;;;0.10;0.10;;;13.00;99.90;;;;;;6146362;23;20012;-78
2021/05/20 06:08:25;;;;;;;0.10;0.10;;;13.00;99.90;;;;;;6147538;23;20005;-79
2021/05/20 06:10:52;;;;;;;0.10;0.10;;;13.10;99.90;;;;;;6148767;23;20012;-84
2021/05/20 06:13:20;;;;;;;0.10;0.10;;;13.20;99.90;;;;;;6149127;23;20314;-81
2021/05/20 06:15:46;;;;;;;0.10;0.10;;;13.20;99.90;;;;;;6146850;23;20548;-80
2021/05/20 06:18:12;;;;;;;0.10;0.10;;;13.20;99.90;;;;;;6148307;23;20476;-77
2021/05/20 06:20:37;;;;;;;0.10;0.10;;;13.20;99.90;;;;;;6147213;23;20001;-77
2021/05/20 06:23:04;;;;;;;0.10;0.10;;;13.20;99.90;;;;;;6148721;23;20398;-77
2021/05/20 06:25:29;;;;;;;0.10;0.10;;;13.30;99.90;;;;;;6149101;23;20009;-78
2021/05/20 06:27:55;;;;;;;0.10;0.10;;;13.50;99.90;;;;;;6148070;23;20008;-78
2021/05/20 06:30:22;;;;;;;0.10;0.10;;;13.60;99.90;;;;;;6150245;23;20045;-78
2021/05/20 06:32:48;;;;;;;;;;;13.70;99.90;;;;;;6148404;23;20433;-79
2021/05/20 06:35:13;;;;;;;0.75;0.75;;;13.80;99.90;;;;;;6148839;23;19904;-79
2021/05/20 06:37:39;;;;;;;0.10;0.10;;;13.90;99.90;;;;;;6146450;23;20503;-80
2021/05/20 06:40:06;;;;;;;0.28;0.25;;;14.00;99.90;;;;;;6149066;23;20012;-78
2021/05/20 06:42:32;;;;;;;0.30;0.30;;;14.10;99.90;;;;;;6148065;23;20441;-79
2021/05/20 06:44:58;;;;;;;0.10;0.10;;;14.30;99.90;;;;;;6148537;23;20013;-78
2021/05/20 06:47:24;;;;;;;0.13;0.10;;;14.40;99.90;;;;;;6151002;23;20010;-78
2021/05/20 06:49:49;;;;;;;0.10;0.10;;;14.40;99.90;;;;;;6146846;23;20009;-78
2021/05/20 06:52:15;;;;;;;0.75;0.75;;;14.50;99.90;;;;;;6147835;23;20012;-78
2021/05/20 06:54:42;;;;;;;0.10;0.10;;;14.50;99.90;;;;;;6146840;23;20009;-79
2021/05/20 06:57:18;;;;;;;4.00;1.25;;;14.60;99.90;;;;;;6130998;23;20033;-78
2021/05/20 06:59:57;;;;;;;0.80;0.38;;;14.60;99.90;;;;;;6139038;23;20001;-78
2021/05/20 07:02:24;;;;;;;0.60;0.25;;;14.80;99.90;;;;;;6144121;23;20006;-78
2021/05/20 07:04:50;;;;;;;11.77;2.08;;;15.00;99.90;;;;;;6147528;23;20043;-78
2021/05/20 07:07:16;;;;;;;1.17;1.05;;;15.10;99.90;;;;;;6146731;23;20001;-79
2021/05/20 07:09:42;;;;;;;2.13;1.92;;;15.10;99.90;;;;;;6147404;23;20068;-78
2021/05/20 07:12:08;;;;;;;1.67;1.43;;;15.10;99.90;;;;;;6147455;23;20038;-82
2021/05/20 07:14:34;;;;;;;7.45;3.22;;;15.10;99.90;;;;;;6147772;23;20002;-78
2021/05/20 07:17:00;;;;;;;3.38;2.85;;;15.10;99.90;;;;;;6140697;23;20006;-78
2021/05/20 07:19:26;;;;;;;11.00;2.13;;;15.00;99.90;;;;;;6145725;23;20061;-78
2021/05/20 07:21:52;;;;;;;0.93;0.93;;;15.10;99.90;;;;;;6144700;23;20021;-78
2021/05/20 07:24:18;;;;;;;3.25;1.38;;;15.10;99.90;;;;;;6144232;23;20012;-77
2021/05/20 07:26:45;;;;;;;1.83;0.90;;;15.00;99.90;;;;;;6146723;23;20009;-77
2021/05/20 07:29:10;;;;;;;1.40;0.93;;;15.20;99.90;;;;;;6144272;23;20272;-77
2021/05/20 07:31:38;;;;;;;1.27;1.05;;;15.30;99.90;;;;;;6147260;23;20005;-79
2021/05/20 07:34:04;;;;;;;2.75;1.52;;;15.20;99.90;;;;;;6144970;23;20422;-78
2021/05/20 07:36:29;;;;;;;0.17;0.17;;;15.20;99.90;;;;;;6146939;23;20065;-78
2021/05/20 07:38:55;;;;;;;18.10;2.28;;;15.20;99.90;;;;;;6147324;23;20009;-81
2021/05/20 07:41:21;;;;;;;1.45;0.90;;;15.30;99.90;;;;;;6149813;23;20014;-80
2021/05/20 07:43:47;;;;;;;0.25;0.25;;;15.40;99.90;;;;;;6148777;23;19998;-80
2021/05/20 07:46:13;;;;;;;2.00;1.02;;;15.40;99.90;;;;;;6148637;23;20028;-79
2021/05/20 07:48:39;;;;;;;0.43;0.43;;;15.40;99.90;;;;;;6149028;23;19997;-80
2021/05/20 07:51:07;;;;;;;1.35;0.43;;;15.40;99.90;;;;;;6149354;23;20060;-78
2021/05/20 07:53:35;;;;;;;0.47;0.47;;;15.50;99.90;;;;;;6147936;23;20079;-79
2021/05/20 07:56:02;;;;;;;0.10;0.10;;;15.60;99.90;;;;;;6147190;23;20096;-79
2021/05/20 07:58:29;;;;;;;17.98;2.30;;;15.60;99.90;;;;;;6148327;23;20081;-76
2021/05/20 08:00:56;;;;;;;3.95;1.85;;;15.60;99.90;;;;;;6148132;23;20010;-77
2021/05/20 08:08:37;;;;;;;2.67;1.25;;;15.70;99.90;;;;;;6152228;23;20395;-76
2021/05/20 08:11:09;;;;;;;3.90;2.10;;;15.70;99.90;;;;;;6149011;23;20010;-76
2021/05/20 08:13:35;;;;;;;3.55;1.20;;;15.70;99.90;;;;;;6149018;23;20005;-76
2021/05/20 08:16:02;;;;;;;4.68;2.55;;;15.80;99.90;;;;;;6148355;23;20013;-77
2021/05/20 08:18:29;;;;;;;4.35;0.70;;;15.90;99.90;;;;;;6147568;23;20037;-77
2021/05/20 08:20:55;;;;;;;5.18;3.05;;;16.00;99.90;;;;;;6149608;23;20028;-76
2021/05/20 08:23:21;;;;;;;3.70;2.30;;;16.10;99.90;;;;;;6147236;23;20080;-76
2021/05/20 08:25:47;;;;;;;1.88;0.93;;;15.90;99.90;;;;;;6148472;23;20001;-77
2021/05/20 08:28:13;;;;;;;0.70;0.70;;;15.80;99.90;;;;;;6148781;23;20096;-76
2021/05/20 08:30:39;;;;;;;3.53;0.90;;;15.80;99.90;;;;;;6146757;23;20014;-77
2021/05/20 08:33:06;;;;;;;1.02;0.68;;;15.80;99.90;;;;;;6149248;23;20480;-76
2021/05/20 08:35:31;;;;;;;0.87;0.27;;;15.80;99.90;;;;;;6148030;23;20352;-77
2021/05/20 08:37:57;;;;;;;2.13;1.77;;;15.90;99.90;;;;;;6149003;23;20005;-76
2021/05/20 08:40:23;;;;;;;0.17;0.17;;;16.00;99.90;;;;;;6149017;23;20005;-77
2021/05/20 08:42:49;;;;;;;1.92;0.70;;;16.00;99.90;;;;;;6149090;23;20066;-76
2021/05/20 08:45:27;;;;;;;4.35;1.20;;;16.10;99.90;;;;;;6148344;23;20002;-77
2021/05/20 08:47:54;;;;;;;0.50;0.50;;;16.10;99.90;;;;;;6149318;23;20149;-77
2021/05/20 08:50:20;;;;;;;;;;;16.10;99.90;;;;;;6145774;23;20041;-77
2021/05/20 08:52:46;;;;;;;3.08;1.05;;;15.90;99.90;;;;;;6147097;23;20217;-76
2021/05/20 08:55:20;;;;;;;1.70;1.25;;;15.90;99.90;;;;;;6147870;23;20036;-76
2021/05/20 08:57:47;;;;;;;0.57;0.52;;;15.80;99.90;;;;;;6145169;23;20005;-76
2021/05/20 09:00:17;;;;;;;2.55;1.90;;;15.70;99.90;;;;;;6147467;23;20421;-75
2021/05/20 09:02:42;;;;;;;1.10;0.88;;;15.60;99.90;;;;;;6145940;23;20002;-76
2021/05/20 09:05:16;;;;;;;5.35;1.27;;;15.70;99.90;;;;;;6144655;23;20084;-77
2021/05/20 09:07:43;;;;;;;4.85;2.45;;;15.80;99.90;;;;;;6148262;23;19997;-77
2021/05/20 09:10:16;;;;;;;1.13;1.02;;;15.90;99.90;;;;;;6147091;23;20009;-77
2021/05/20 09:12:42;;;;;;;4.70;1.33;;;15.90;99.90;;;;;;6131027;23;20005;-77
2021/05/20 09:15:19;;;;;;;4.68;1.13;;;15.90;99.90;;;;;;6145862;23;20057;-78
2021/05/20 09:17:45;;;;;;;1.73;0.90;;;15.90;99.90;;;;;;6148037;23;20002;-77
2021/05/20 09:20:13;;;;;;;1.73;0.63;;;16.00;99.90;;;;;;6148943;23;20430;-77
2021/05/20 09:22:39;;;;;;;0.88;0.60;;;16.10;99.90;;;;;;6146786;23;20022;-76
2021/05/20 09:25:06;;;;;;;0.87;0.20;;;16.20;99.90;;;;;;6147119;23;20029;-77
2021/05/20 09:27:44;;;;;;;0.90;0.75;;;16.10;99.90;;;;;;6148429;23;20008;-77
2021/05/20 09:30:20;;;;;;;0.20;0.20;;;16.00;99.90;;;;;;6147997;23;20425;-77
2021/05/20 09:33:09;;;;;;;0.95;0.85;;;16.20;99.90;;;;;;6145776;23;20002;-77
2021/05/20 09:35:36;;;;;;;;;;;16.30;99.90;;;;;;6146911;23;20009;-77
2021/05/20 09:38:06;;;;;;;1.35;0.82;;;16.20;99.90;;;;;;6147533;23;19987;-77
2021/05/20 09:40:33;;;;;;;0.70;0.60;;;16.30;99.90;;;;;;6146907;23;20014;-77
2021/05/20 09:42:59;;;;;;;0.43;0.40;;;16.20;99.90;;;;;;6148360;23;20005;-77
2021/05/20 09:45:27;;;;;;;0.60;0.40;;;16.30;99.90;;;;;;6146547;23;20392;-78
2021/05/20 09:48:06;;;;;;;1.13;0.38;;;16.50;99.90;;;;;;6148122;23;20012;-77
2021/05/20 09:50:37;;;;;;;7.47;0.80;;;16.40;99.90;;;;;;6148048;23;20087;-77
2021/05/20 09:53:08;;;;;;;1.70;0.63;;;16.40;99.90;;;;;;6148557;23;20358;-78
2021/05/20 09:55:34;;;;;;;0.15;0.15;;;16.40;99.90;;;;;;6146588;23;20010;-77
2021/05/20 09:58:09;;;;;;;0.10;0.10;;;16.50;99.90;;;;;;6147189;23;20065;-78
2021/05/20 10:00:34;;;;;;;0.15;0.15;;;16.60;99.90;;;;;;6147226;23;20334;-78
2021/05/20 10:03:09;;;;;;;0.10;0.10;;;16.60;99.90;;;;;;6146586;23;20002;-78
2021/05/20 10:05:39;;;;;;;0.45;0.45;;;16.60;99.90;;;;;;6146983;23;20445;-77
2021/05/20 10:08:10;;;;;;;2.25;1.08;;;16.70;99.90;;;;;;6147791;23;20047;-77
2021/05/20 10:10:39;;;;;;;1.92;1.20;;;16.70;99.90;;;;;;6148606;23;20402;-79
2021/05/20 10:13:38;;;;;;;0.80;0.60;;;16.80;99.90;;;;;;6147727;23;20005;-77
2021/05/20 10:16:05;;;;;;;0.30;0.30;;;16.80;99.90;;;;;;6113861;23;20035;-78
2021/05/20 10:18:30;;;;;;;5.07;0.63;;;16.70;99.90;;;;;;6147541;23;20014;-77
2021/05/20 10:21:03;;;;;;;0.68;0.68;;;16.70;99.90;;;;;;6148418;23;20088;-77
2021/05/20 10:23:29;;;;;;;7.93;0.55;;;16.60;99.90;;;;;;6148078;23;20089;-78
2021/05/20 10:25:58;;;;;;;0.20;0.20;;;16.60;99.90;;;;;;6148171;23;20413;-78
2021/05/20 10:28:27;;;;;;;0.10;0.10;;;16.70;99.90;;;;;;6147848;23;20041;-77
2021/05/20 10:30:56;;;;;;;0.10;0.10;;;16.70;99.90;;;;;;6145815;23;20449;-77
2021/05/20 10:33:29;;;;;;;0.15;0.15;;;16.70;99.90;;;;;;6144195;23;20463;-78
2021/05/20 10:35:57;;;;;;;0.10;0.10;;;16.90;99.90;;;;;;6142984;23;20021;-77
2021/05/20 10:38:29;;;;;;;0.80;0.43;;;17.10;99.90;;;;;;6145161;23;20104;-77
2021/05/20 10:41:13;;;;;;;0.30;0.30;;;17.10;99.90;;;;;;6148296;23;20006;-76
2021/05/20 10:43:40;;;;;;;0.10;0.10;;;17.00;99.90;;;;;;6144705;23;20032;-77
2021/05/20 10:46:12;;;;;;;0.82;0.50;;;17.00;99.90;;;;;;6146847;23;20002;-77
2021/05/20 10:48:47;;;;;;;0.20;0.20;;;17.20;99.90;;;;;;6146044;23;20764;-77
2021/05/20 10:51:25;;;;;;;0.57;0.43;;;17.00;99.90;;;;;;6142261;23;20023;-78
2021/05/20 10:54:05;;;;;;;0.13;0.13;;;17.10;99.90;;;;;;6146432;23;20013;-78
2021/05/20 10:56:32;;;;;;;0.13;0.13;;;17.00;99.90;;;;;;6145730;23;20006;-78
2021/05/20 10:58:58;;;;;;;0.43;0.40;;;17.20;99.90;;;;;;6147917;23;20009;-78
2021/05/20 11:01:24;;;;;;;0.28;0.28;;;17.20;99.90;;;;;;6147704;23;20006;-78
2021/05/20 11:04:05;;;;;;;3.03;0.40;;;17.10;99.90;;;;;;6147860;23;20567;-78
2021/05/20 11:06:37;;;;;;;0.50;0.50;;;17.30;99.90;;;;;;6147537;23;20001;-77
2021/05/20 11:09:13;;;;;;;3.53;0.70;;;17.40;99.90;;;;;;6147265;23;20481;-78
2021/05/20 11:11:38;;;;;;;0.10;0.10;;;17.20;99.90;;;;;;6148589;23;20013;-76
2021/05/20 11:14:27;;;;;;;1.17;0.40;;;17.20;99.90;;;;;;6147674;23;20080;-76
2021/05/20 11:16:53;;;;;;;;;;;17.40;99.90;;;;;;6147486;23;20485;-76
2021/05/20 11:19:25;;;;;;;0.20;0.20;;;17.40;99.90;;;;;;6149889;23;19976;-76
2021/05/20 11:22:01;;;;;;;0.30;0.30;;;17.40;99.90;;;;;;6149999;23;20009;-76
2021/05/20 11:24:31;;;;;;;0.30;0.30;;;17.50;99.90;;;;;;6149391;23;20089;-75
2021/05/20 11:27:04;;;;;;;0.30;0.15;;;17.60;99.90;;;;;;6147848;23;20072;-76
2021/05/20 11:29:33;;;;;;;0.22;0.22;;;17.70;99.90;;;;;;6147957;23;20022;-79
2021/05/20 11:32:19;;;;;;;0.10;0.10;;;17.80;99.90;;;;;;6149770;23;20195;-78
2021/05/20 11:37:32;;;;;;;3.20;0.30;;;17.70;99.90;;;;;;6150264;23;20009;-80
2021/05/20 11:39:58;;;;;;;0.22;0.22;;;17.80;99.90;;;;;;6149832;23;20002;-78
2021/05/20 11:42:29;;;;;;;0.28;0.28;;;17.60;99.90;;;;;;6149833;23;20012;-78
2021/05/20 11:44:56;;;;;;;0.45;0.45;;;17.50;99.90;;;;;;6147841;23;20009;-78
2021/05/20 11:47:22;;;;;;;0.43;0.30;;;17.40;99.90;;;;;;6147722;23;20005;-78
2021/05/20 11:49:49;;;;;;;0.40;0.40;;;17.60;99.90;;;;;;6149097;23;20017;-78
2021/05/20 11:52:15;;;;;;;0.20;0.17;;;17.70;99.90;;;;;;6148196;23;20001;-78
2021/05/20 11:54:51;;;;;;;0.10;0.10;;;17.80;99.70;;;;;;6147516;23;20020;-79
2021/05/20 11:57:20;;;;;;;0.32;0.28;;;17.80;99.90;;;;;;6149271;23;19998;-79
2021/05/20 11:59:48;;;;;;;0.40;0.40;;;17.70;99.90;;;;;;6149525;23;20002;-79
2021/05/20 12:02:21;;;;;;;0.60;0.60;;;17.90;99.90;;;;;;6148910;23;19997;-77
2021/05/20 12:04:48;;;;;;;2.67;1.00;;;19.90;99.90;;;;;;6143857;23;20617;-79
2021/05/20 12:07:26;;;;;;;1.00;1.00;;;22.80;93.70;;;;;;6149134;23;20006;-79
2021/05/20 12:10:07;;;;;;;1.17;1.13;;;23.90;86.50;;;;;;6150038;23;20017;-78
2021/05/20 12:12:33;;;;;;;0.95;0.95;;;24.80;78.30;;;;;;6149379;23;20002;-78
2021/05/20 12:14:59;;;;;;;0.77;0.77;;;25.60;75.90;;;;;;6139531;23;20005;-79
2021/05/20 12:17:25;;;;;;;0.50;0.50;;;26.90;70.20;;;;;;6144205;23;20032;-79
2021/05/20 12:19:56;;;;;;;3.38;0.60;;;27.60;64.90;;;;;;6147865;23;20008;-79
2021/05/20 12:22:29;;;;;;;0.60;0.60;;;28.30;60.10;;;;;;6149542;23;20021;-78
2021/05/20 12:25:08;;;;;;;2.90;0.63;;;28.20;57.70;;;;;;6147742;23;20001;-78
2021/05/20 12:27:40;;;;;;;0.50;0.50;;;27.70;59.70;;;;;;6146081;23;20025;-78
2021/05/20 12:30:10;;;;;;;2.72;2.47;;;28.80;58.00;;;;;;6148649;23;20061;-78
2021/05/20 12:32:38;;;;;;;0.50;0.50;;;28.50;56.70;;;;;;6146277;23;20005;-80
2021/05/20 12:35:10;;;;;;;0.40;0.40;;;29.20;55.30;;;;;;6147234;23;20029;-79
2021/05/20 12:37:42;;;;;;;0.50;0.50;;;30.80;53.80;;;;;;6148949;23;20418;-77
2021/05/20 12:40:27;;;;;;;0.70;0.70;;;30.70;51.30;;;;;;6147027;23;20512;-77
2021/05/20 12:43:28;;;;;;;0.35;0.35;;;32.10;49.00;;;;;;6148221;23;20001;-79
2021/05/20 12:45:58;;;;;;;0.40;0.40;;;32.20;48.70;;;;;;6148215;23;20060;-78
2021/05/20 12:48:30;;;;;;;0.75;0.50;;;31.70;46.70;;;;;;6146691;23;20006;-77
2021/05/20 12:51:01;;;;;;;0.73;0.73;;;29.30;51.00;;;;;;6148510;23;20013;-77
2021/05/20 12:53:35;;;;;;;0.70;0.35;;;28.30;54.20;;;;;;6148373;23;20001;-77
2021/05/20 12:56:25;;;;;;;0.28;0.28;;;29.40;55.10;;;;;;6149085;23;20023;-80
2021/05/20 12:59:17;;;;;;;0.47;0.32;;;29.30;54.70;;;;;;6146935;23;20547;-78
2021/05/20 13:01:52;;;;;;;0.17;0.17;;;30.20;52.10;;;;;;6144777;23;20013;-79
2021/05/20 13:04:29;;;;;;;0.20;0.20;;;30.60;51.50;;;;;;6149930;23;20005;-79